1. Check if you meet the minimum entry requirements (check courses).
  2. Contact us if you have any further questions.
  3. Submit a ditailed application form of your preferred course.
  4. Complete and successfully pass the appropriate course assessment.
  5. Arrange your course funding.
  6. Obtain a Medical Certificate from a medical examiner approved by the relevant national aviation authority.
  7. Book a course and make the deposit to secure your place.
  8. Commence training.
  9. Take your Pilot's Licence

Student's Login

Local Time

LGIR WEATHER

[source: ADDS]
METAR
LGIR 171450Z 31010KT 9999 FEW025 27/19 Q1010 NOSIG =
TAF LGIR 171100Z 1712/1812 30013KT 9999 FEW025 BECMG 1718/1720 VRB05KT BECMG 1804/1806 29012KT
TAF
TAF LGIR 171100Z 1712/1812 30013KT 9999 FEW025 BECMG 1718/1720 VRB05KT BECMG 1804/1806 29012KT =

Czech sport aircraft

Cretan Eagle Aviation Ltd. is proud to be appointed as an authorized Czech Sport Aircraft Promoter for Greece
and Cyprus. Please click on the link or give us a call for any additional information on Czech Sport Aircraft.

 

 

On-line PPL QUIZ

Student members can join our free on-line database to practice on PPL quizzes and get ready for the real
exams. Becoming a member and getting access to our system is FREE for all of our students.

 

Paypal Verified

Payments for any Course can be made by Bank Transfer, Cash and PayPal secure payment.

 

Go to top